sensor_id;sensor_type;location;lat;lon;timestamp;pressure;altitude;pressure_sealevel;temperature;humidity
18533;BME280;9396;51.510;11.934;2022-08-02T00:00:57;100744.03;;;19.68;89.43
18533;BME280;9396;51.510;11.934;2022-08-02T00:03:25;100740.28;;;19.69;89.04
18533;BME280;9396;51.510;11.934;2022-08-02T00:05:52;100740.72;;;19.66;89.17
18533;BME280;9396;51.510;11.934;2022-08-02T00:08:19;100746.94;;;19.60;89.10
18533;BME280;9396;51.510;11.934;2022-08-02T00:10:45;100748.16;;;19.57;89.40
18533;BME280;9396;51.510;11.934;2022-08-02T00:13:12;100740.88;;;19.51;89.39
18533;BME280;9396;51.510;11.934;2022-08-02T00:15:39;100738.59;;;19.48;89.39
18533;BME280;9396;51.510;11.934;2022-08-02T00:18:05;100741.50;;;19.47;89.50
18533;BME280;9396;51.510;11.934;2022-08-02T00:20:33;100742.69;;;19.38;89.71
18533;BME280;9396;51.510;11.934;2022-08-02T00:23:00;100739.91;;;19.24;89.56
18533;BME280;9396;51.510;11.934;2022-08-02T00:25:27;100739.28;;;19.22;90.13
18533;BME280;9396;51.510;11.934;2022-08-02T00:27:53;100748.00;;;19.24;90.15
18533;BME280;9396;51.510;11.934;2022-08-02T00:30:20;100751.13;;;19.21;90.02
18533;BME280;9396;51.510;11.934;2022-08-02T00:32:47;100749.25;;;19.22;89.99
18533;BME280;9396;51.510;11.934;2022-08-02T00:35:14;100745.09;;;19.19;89.72
18533;BME280;9396;51.510;11.934;2022-08-02T00:37:42;100732.59;;;19.12;90.10
18533;BME280;9396;51.510;11.934;2022-08-02T00:40:10;100736.97;;;19.13;90.17
18533;BME280;9396;51.510;11.934;2022-08-02T00:42:37;100739.03;;;19.11;90.45
18533;BME280;9396;51.510;11.934;2022-08-02T00:45:04;100733.84;;;19.09;90.45
18533;BME280;9396;51.510;11.934;2022-08-02T00:47:31;100739.44;;;19.08;90.50
18533;BME280;9396;51.510;11.934;2022-08-02T00:49:58;100743.13;;;19.00;90.27
18533;BME280;9396;51.510;11.934;2022-08-02T00:52:24;100739.59;;;19.00;90.60
18533;BME280;9396;51.510;11.934;2022-08-02T00:54:52;100748.31;;;18.95;90.78
18533;BME280;9396;51.510;11.934;2022-08-02T00:57:19;100750.75;;;18.90;91.46
18533;BME280;9396;51.510;11.934;2022-08-02T00:59:46;100750.75;;;18.90;91.02
18533;BME280;9396;51.510;11.934;2022-08-02T01:02:13;100759.88;;;18.89;90.77
18533;BME280;9396;51.510;11.934;2022-08-02T01:04:39;100761.72;;;18.89;90.72
18533;BME280;9396;51.510;11.934;2022-08-02T01:07:06;100763.78;;;18.87;90.62
18533;BME280;9396;51.510;11.934;2022-08-02T01:09:33;100756.94;;;18.84;90.65
18533;BME280;9396;51.510;11.934;2022-08-02T01:12:01;100761.06;;;18.80;90.77
18533;BME280;9396;51.510;11.934;2022-08-02T01:14:27;100762.91;;;18.80;91.04
18533;BME280;9396;51.510;11.934;2022-08-02T01:17:05;100764.59;;;18.81;90.73
18533;BME280;9396;51.510;11.934;2022-08-02T01:19:38;100768.50;;;18.78;91.47
18533;BME280;9396;51.510;11.934;2022-08-02T01:22:21;100768.91;;;18.75;91.43
18533;BME280;9396;51.510;11.934;2022-08-02T01:25:13;100768.91;;;18.75;91.14
18533;BME280;9396;51.510;11.934;2022-08-02T01:27:51;100767.63;;;18.71;91.63
18533;BME280;9396;51.510;11.934;2022-08-02T01:30:21;100769.66;;;18.63;92.21
18533;BME280;9396;51.510;11.934;2022-08-02T01:32:53;100771.06;;;18.59;92.71
18533;BME280;9396;51.510;11.934;2022-08-02T01:35:23;100765.47;;;18.60;92.04
18533;BME280;9396;51.510;11.934;2022-08-02T01:37:56;100764.66;;;18.60;91.89
18533;BME280;9396;51.510;11.934;2022-08-02T01:40:27;100758.63;;;18.58;92.15
18533;BME280;9396;51.510;11.934;2022-08-02T01:42:56;100764.59;;;18.53;92.07
18533;BME280;9396;51.510;11.934;2022-08-02T01:45:27;100763.59;;;18.54;91.54
18533;BME280;9396;51.510;11.934;2022-08-02T01:47:56;100765.63;;;18.52;91.50
18533;BME280;9396;51.510;11.934;2022-08-02T01:50:27;100758.78;;;18.50;91.71
18533;BME280;9396;51.510;11.934;2022-08-02T01:52:59;100761.03;;;18.46;91.90
18533;BME280;9396;51.510;11.934;2022-08-02T01:55:29;100757.06;;;18.42;91.87
18533;BME280;9396;51.510;11.934;2022-08-02T01:57:58;100762.47;;;18.42;91.64
18533;BME280;9396;51.510;11.934;2022-08-02T02:00:30;100757.41;;;18.39;92.05
18533;BME280;9396;51.510;11.934;2022-08-02T02:02:58;100765.25;;;18.34;92.09
18533;BME280;9396;51.510;11.934;2022-08-02T02:05:28;100760.91;;;18.33;91.95
18533;BME280;9396;51.510;11.934;2022-08-02T02:07:58;100757.69;;;18.23;92.19
18533;BME280;9396;51.510;11.934;2022-08-02T02:10:28;100769.31;;;18.24;92.23
18533;BME280;9396;51.510;11.934;2022-08-02T02:12:57;100773.63;;;18.18;92.72
18533;BME280;9396;51.510;11.934;2022-08-02T02:15:26;100771.22;;;18.08;92.92
18533;BME280;9396;51.510;11.934;2022-08-02T02:17:56;100763.09;;;18.02;92.67
18533;BME280;9396;51.510;11.934;2022-08-02T02:20:27;100770.53;;;18.00;92.84
18533;BME280;9396;51.510;11.934;2022-08-02T02:22:54;100778.38;;;17.95;93.05
18533;BME280;9396;51.510;11.934;2022-08-02T02:25:21;100779.00;;;17.97;93.07
18533;BME280;9396;51.510;11.934;2022-08-02T02:27:52;100772.97;;;17.95;92.78
18533;BME280;9396;51.510;11.934;2022-08-02T02:30:22;100781.06;;;17.95;92.60
18533;BME280;9396;51.510;11.934;2022-08-02T02:32:52;100772.13;;;17.94;92.44
18533;BME280;9396;51.510;11.934;2022-08-02T02:35:23;100778.38;;;17.95;92.33
18533;BME280;9396;51.510;11.934;2022-08-02T02:37:53;100783.94;;;17.93;92.57
18533;BME280;9396;51.510;11.934;2022-08-02T02:40:22;100788.69;;;17.91;92.37
18533;BME280;9396;51.510;11.934;2022-08-02T02:42:51;100786.19;;;17.90;92.19
18533;BME280;9396;51.510;11.934;2022-08-02T02:45:19;100785.09;;;17.84;92.19
18533;BME280;9396;51.510;11.934;2022-08-02T02:47:47;100791.41;;;17.77;92.68
18533;BME280;9396;51.510;11.934;2022-08-02T02:50:15;100787.47;;;17.73;92.62
18533;BME280;9396;51.510;11.934;2022-08-02T02:52:44;100793.53;;;17.60;92.70
18533;BME280;9396;51.510;11.934;2022-08-02T02:55:11;100787.50;;;17.58;93.36
18533;BME280;9396;51.510;11.934;2022-08-02T02:57:39;100794.00;;;17.64;93.31
18533;BME280;9396;51.510;11.934;2022-08-02T03:00:09;100786.16;;;17.69;93.06
18533;BME280;9396;51.510;11.934;2022-08-02T03:02:38;100782.44;;;17.70;93.08
18533;BME280;9396;51.510;11.934;2022-08-02T03:05:06;100784.59;;;17.74;92.83
18533;BME280;9396;51.510;11.934;2022-08-02T03:07:34;100797.19;;;17.74;92.70
18533;BME280;9396;51.510;11.934;2022-08-02T03:10:04;100797.84;;;17.76;92.44
18533;BME280;9396;51.510;11.934;2022-08-02T03:12:32;100800.53;;;17.76;92.47
18533;BME280;9396;51.510;11.934;2022-08-02T03:15:01;100804.13;;;17.83;91.68
18533;BME280;9396;51.510;11.934;2022-08-02T03:17:40;100800.03;;;17.87;90.97
18533;BME280;9396;51.510;11.934;2022-08-02T03:20:09;100803.34;;;17.89;90.90
18533;BME280;9396;51.510;11.934;2022-08-02T03:22:36;100804.00;;;17.91;90.87
18533;BME280;9396;51.510;11.934;2022-08-02T03:25:05;100796.94;;;17.90;91.00
18533;BME280;9396;51.510;11.934;2022-08-02T03:27:32;100792.22;;;17.92;91.29
18533;BME280;9396;51.510;11.934;2022-08-02T03:29:59;100804.19;;;17.89;92.38
18533;BME280;9396;51.510;11.934;2022-08-02T03:32:26;100800.66;;;17.89;92.40
18533;BME280;9396;51.510;11.934;2022-08-02T03:34:53;100799.44;;;17.91;91.79
18533;BME280;9396;51.510;11.934;2022-08-02T03:37:20;100789.06;;;17.88;91.19
18533;BME280;9396;51.510;11.934;2022-08-02T03:39:47;100797.84;;;17.97;91.42
18533;BME280;9396;51.510;11.934;2022-08-02T03:42:16;100793.75;;;18.01;91.37
18533;BME280;9396;51.510;11.934;2022-08-02T03:44:44;100795.63;;;18.00;91.87
18533;BME280;9396;51.510;11.934;2022-08-02T03:47:12;100786.25;;;17.96;90.54
18533;BME280;9396;51.510;11.934;2022-08-02T03:49:39;100790.81;;;17.96;90.42
18533;BME280;9396;51.510;11.934;2022-08-02T03:52:06;100800.75;;;17.95;90.59
18533;BME280;9396;51.510;11.934;2022-08-02T03:54:34;100793.88;;;17.93;90.49
18533;BME280;9396;51.510;11.934;2022-08-02T03:57:01;100805.09;;;17.96;90.70
18533;BME280;9396;51.510;11.934;2022-08-02T03:59:38;100801.59;;;17.96;91.13
18533;BME280;9396;51.510;11.934;2022-08-02T04:02:05;100805.94;;;17.97;91.39
18533;BME280;9396;51.510;11.934;2022-08-02T04:04:32;100811.72;;;17.94;90.76
18533;BME280;9396;51.510;11.934;2022-08-02T04:06:59;100807.34;;;17.93;90.50
18533;BME280;9396;51.510;11.934;2022-08-02T04:09:25;100809.00;;;17.94;90.90
18533;BME280;9396;51.510;11.934;2022-08-02T04:11:52;100816.25;;;17.93;91.09
18533;BME280;9396;51.510;11.934;2022-08-02T04:14:18;100822.53;;;18.00;90.46
18533;BME280;9396;51.510;11.934;2022-08-02T04:16:49;100831.00;;;17.97;90.76
18533;BME280;9396;51.510;11.934;2022-08-02T04:19:20;100813.75;;;17.92;90.55
18533;BME280;9396;51.510;11.934;2022-08-02T04:21:50;100825.38;;;17.92;90.51
18533;BME280;9396;51.510;11.934;2022-08-02T04:24:21;100828.91;;;17.78;91.35
18533;BME280;9396;51.510;11.934;2022-08-02T04:26:48;100832.69;;;17.84;91.51
18533;BME280;9396;51.510;11.934;2022-08-02T04:29:16;100827.97;;;17.86;91.60
18533;BME280;9396;51.510;11.934;2022-08-02T04:31:44;100823.97;;;17.82;91.99
18533;BME280;9396;51.510;11.934;2022-08-02T04:34:12;100821.81;;;17.92;91.11
18533;BME280;9396;51.510;11.934;2022-08-02T04:36:39;100822.53;;;18.00;90.50
18533;BME280;9396;51.510;11.934;2022-08-02T04:39:06;100825.03;;;18.02;90.64
18533;BME280;9396;51.510;11.934;2022-08-02T04:41:37;100822.09;;;17.97;90.51
18533;BME280;9396;51.510;11.934;2022-08-02T04:44:04;100822.09;;;17.97;90.90
18533;BME280;9396;51.510;11.934;2022-08-02T04:46:31;100820.50;;;18.02;90.64
18533;BME280;9396;51.510;11.934;2022-08-02T04:48:58;100820.50;;;18.02;91.24
18533;BME280;9396;51.510;11.934;2022-08-02T04:51:26;100816.25;;;17.93;91.79
18533;BME280;9396;51.510;11.934;2022-08-02T04:53:53;100820.69;;;18.01;91.30
18533;BME280;9396;51.510;11.934;2022-08-02T04:56:20;100814.91;;;18.04;91.49
18533;BME280;9396;51.510;11.934;2022-08-02T04:58:47;100820.78;;;18.14;90.92
18533;BME280;9396;51.510;11.934;2022-08-02T05:01:13;100825.28;;;18.28;90.92
18533;BME280;9396;51.510;11.934;2022-08-02T05:03:40;100802.31;;;18.32;90.07
18533;BME280;9396;51.510;11.934;2022-08-02T05:06:07;100819.09;;;18.28;89.66
18533;BME280;9396;51.510;11.934;2022-08-02T05:08:35;100819.91;;;18.28;90.57
18533;BME280;9396;51.510;11.934;2022-08-02T05:11:01;100823.13;;;18.38;89.90
18533;BME280;9396;51.510;11.934;2022-08-02T05:13:28;100823.69;;;18.34;88.91
18533;BME280;9396;51.510;11.934;2022-08-02T05:15:55;100829.06;;;18.34;89.22
18533;BME280;9396;51.510;11.934;2022-08-02T05:18:23;100842.72;;;18.32;89.99
18533;BME280;9396;51.510;11.934;2022-08-02T05:20:49;100844.41;;;18.33;90.93
18533;BME280;9396;51.510;11.934;2022-08-02T05:23:16;100841.41;;;18.43;91.13
18533;BME280;9396;51.510;11.934;2022-08-02T05:25:44;100841.78;;;18.61;89.77
18533;BME280;9396;51.510;11.934;2022-08-02T05:28:11;100845.59;;;18.73;88.33
18533;BME280;9396;51.510;11.934;2022-08-02T05:30:38;100848.28;;;18.73;88.12
18533;BME280;9396;51.510;11.934;2022-08-02T05:33:05;100851.94;;;18.86;88.02
18533;BME280;9396;51.510;11.934;2022-08-02T05:35:32;100849.97;;;18.74;88.60
18533;BME280;9396;51.510;11.934;2022-08-02T05:37:59;100849.53;;;18.70;87.39
18533;BME280;9396;51.510;11.934;2022-08-02T05:40:26;100848.94;;;18.75;87.71
18533;BME280;9396;51.510;11.934;2022-08-02T05:42:54;100846.16;;;18.89;87.00
18533;BME280;9396;51.510;11.934;2022-08-02T05:45:21;100852.19;;;18.91;86.57
18533;BME280;9396;51.510;11.934;2022-08-02T05:47:47;100851.28;;;19.12;86.08
18533;BME280;9396;51.510;11.934;2022-08-02T05:50:14;100857.97;;;19.22;86.00
18533;BME280;9396;51.510;11.934;2022-08-02T05:52:45;100864.44;;;19.56;84.63
18533;BME280;9396;51.510;11.934;2022-08-02T05:55:16;100859.91;;;19.63;83.24
18533;BME280;9396;51.510;11.934;2022-08-02T05:57:49;100853.31;;;19.85;84.51
18533;BME280;9396;51.510;11.934;2022-08-02T06:00:19;100849.88;;;20.04;81.00
18533;BME280;9396;51.510;11.934;2022-08-02T06:03:02;100852.84;;;21.13;78.17
18533;BME280;9396;51.510;11.934;2022-08-02T06:05:32;100839.84;;;21.99;75.97
18533;BME280;9396;51.510;11.934;2022-08-02T06:07:59;100837.97;;;22.86;74.31
18533;BME280;9396;51.510;11.934;2022-08-02T06:10:27;100842.75;;;23.99;68.50
18533;BME280;9396;51.510;11.934;2022-08-02T06:13:02;100845.31;;;24.12;67.35
18533;BME280;9396;51.510;11.934;2022-08-02T06:15:34;100829.66;;;24.90;66.12
18533;BME280;9396;51.510;11.934;2022-08-02T06:18:01;100839.59;;;25.71;63.73
18533;BME280;9396;51.510;11.934;2022-08-02T06:20:29;100849.47;;;24.15;65.25
18533;BME280;9396;51.510;11.934;2022-08-02T06:23:00;100850.25;;;24.04;66.14
18533;BME280;9396;51.510;11.934;2022-08-02T06:25:28;100832.69;;;23.70;66.45
18533;BME280;9396;51.510;11.934;2022-08-02T06:27:56;100848.03;;;23.04;69.22
18533;BME280;9396;51.510;11.934;2022-08-02T06:30:23;100843.56;;;23.52;69.14
18533;BME280;9396;51.510;11.934;2022-08-02T06:32:51;100846.72;;;22.88;68.23
18533;BME280;9396;51.510;11.934;2022-08-02T06:35:18;100857.84;;;23.05;68.65
18533;BME280;9396;51.510;11.934;2022-08-02T06:37:49;100853.22;;;22.87;69.04
18533;BME280;9396;51.510;11.934;2022-08-02T06:40:25;100850.00;;;23.15;68.19
18533;BME280;9396;51.510;11.934;2022-08-02T06:43:00;100845.91;;;23.49;68.38
18533;BME280;9396;51.510;11.934;2022-08-02T06:45:31;100843.28;;;24.08;66.53
18533;BME280;9396;51.510;11.934;2022-08-02T06:48:00;100848.84;;;23.83;64.01
18533;BME280;9396;51.510;11.934;2022-08-02T06:50:26;100855.44;;;24.35;71.71
18533;BME280;9396;51.510;11.934;2022-08-02T06:52:53;100843.75;;;24.46;62.74
18533;BME280;9396;51.510;11.934;2022-08-02T06:55:20;100843.72;;;24.34;63.10
18533;BME280;9396;51.510;11.934;2022-08-02T06:57:47;100798.03;;;24.13;66.49
18533;BME280;9396;51.510;11.934;2022-08-02T07:00:14;100833.66;;;24.88;64.57
18533;BME280;9396;51.510;11.934;2022-08-02T07:02:41;100826.91;;;24.79;62.12
18533;BME280;9396;51.510;11.934;2022-08-02T07:05:09;100829.88;;;25.75;61.80
18533;BME280;9396;51.510;11.934;2022-08-02T07:07:36;100816.59;;;26.06;60.19
18533;BME280;9396;51.510;11.934;2022-08-02T07:10:03;100818.13;;;25.34;59.93
18533;BME280;9396;51.510;11.934;2022-08-02T07:12:32;100801.59;;;25.64;59.81
18533;BME280;9396;51.510;11.934;2022-08-02T07:15:00;100821.69;;;26.31;60.27
18533;BME280;9396;51.510;11.934;2022-08-02T07:17:28;100830.06;;;26.41;59.32
18533;BME280;9396;51.510;11.934;2022-08-02T07:19:55;100833.50;;;26.36;58.14
18533;BME280;9396;51.510;11.934;2022-08-02T07:22:23;100825.59;;;26.35;57.97
18533;BME280;9396;51.510;11.934;2022-08-02T07:24:51;100819.53;;;25.49;60.48
18533;BME280;9396;51.510;11.934;2022-08-02T07:27:19;100818.13;;;26.14;60.50
18533;BME280;9396;51.510;11.934;2022-08-02T07:29:45;100815.97;;;26.16;59.34
18533;BME280;9396;51.510;11.934;2022-08-02T07:32:13;100808.06;;;26.48;59.41
18533;BME280;9396;51.510;11.934;2022-08-02T07:34:39;100809.44;;;25.89;58.70
18533;BME280;9396;51.510;11.934;2022-08-02T07:37:07;100802.59;;;26.14;60.18
18533;BME280;9396;51.510;11.934;2022-08-02T07:39:35;100811.69;;;26.36;58.79
18533;BME280;9396;51.510;11.934;2022-08-02T07:42:02;100816.16;;;26.26;60.08
18533;BME280;9396;51.510;11.934;2022-08-02T07:44:29;100815.84;;;26.89;58.28
18533;BME280;9396;51.510;11.934;2022-08-02T07:46:59;100820.91;;;27.57;57.87
18533;BME280;9396;51.510;11.934;2022-08-02T07:49:26;100819.31;;;27.82;58.52
18533;BME280;9396;51.510;11.934;2022-08-02T07:51:53;100812.84;;;28.15;56.15
18533;BME280;9396;51.510;11.934;2022-08-02T07:54:20;100810.53;;;28.02;56.71
18533;BME280;9396;51.510;11.934;2022-08-02T07:56:48;100804.59;;;26.69;57.01
18533;BME280;9396;51.510;11.934;2022-08-02T07:59:15;100810.72;;;26.42;59.62
18533;BME280;9396;51.510;11.934;2022-08-02T08:01:41;100805.97;;;25.93;59.69
18533;BME280;9396;51.510;11.934;2022-08-02T08:04:08;100814.97;;;25.94;58.61
18533;BME280;9396;51.510;11.934;2022-08-02T08:06:35;100816.66;;;26.39;60.99
18533;BME280;9396;51.510;11.934;2022-08-02T08:09:02;100808.19;;;26.08;60.71
18533;BME280;9396;51.510;11.934;2022-08-02T08:11:28;100807.41;;;26.57;61.74
18533;BME280;9396;51.510;11.934;2022-08-02T08:13:56;100804.91;;;26.39;60.59
18533;BME280;9396;51.510;11.934;2022-08-02T08:16:23;100803.25;;;26.55;59.76
18533;BME280;9396;51.510;11.934;2022-08-02T08:18:50;100796.81;;;25.99;59.90
18533;BME280;9396;51.510;11.934;2022-08-02T08:21:17;100792.69;;;25.97;60.31
18533;BME280;9396;51.510;11.934;2022-08-02T08:23:44;100794.00;;;25.66;61.60
18533;BME280;9396;51.510;11.934;2022-08-02T08:26:10;100793.97;;;26.06;61.49
18533;BME280;9396;51.510;11.934;2022-08-02T08:28:37;100786.22;;;26.48;61.38
18533;BME280;9396;51.510;11.934;2022-08-02T08:31:05;100792.25;;;26.33;59.60
18533;BME280;9396;51.510;11.934;2022-08-02T08:33:32;100794.31;;;26.26;59.61
18533;BME280;9396;51.510;11.934;2022-08-02T08:35:59;100784.31;;;26.81;59.76
18533;BME280;9396;51.510;11.934;2022-08-02T08:38:25;100776.31;;;27.13;58.48
18533;BME280;9396;51.510;11.934;2022-08-02T08:40:52;100781.44;;;26.88;58.55
18533;BME280;9396;51.510;11.934;2022-08-02T08:43:19;100782.09;;;26.78;58.76
18533;BME280;9396;51.510;11.934;2022-08-02T08:45:47;100778.38;;;26.34;59.97
18533;BME280;9396;51.510;11.934;2022-08-02T08:48:16;100767.88;;;26.76;59.56
18533;BME280;9396;51.510;11.934;2022-08-02T08:50:49;100751.28;;;26.99;59.96
18533;BME280;9396;51.510;11.934;2022-08-02T08:53:19;100755.28;;;27.13;59.36
18533;BME280;9396;51.510;11.934;2022-08-02T08:55:47;100724.91;;;26.88;58.73
18533;BME280;9396;51.510;11.934;2022-08-02T08:58:14;100760.06;;;26.85;59.91
18533;BME280;9396;51.510;11.934;2022-08-02T09:00:41;100749.25;;;27.11;63.87
18533;BME280;9396;51.510;11.934;2022-08-02T09:03:08;100752.06;;;27.16;60.07
18533;BME280;9396;51.510;11.934;2022-08-02T09:05:37;100743.56;;;27.34;60.27
18533;BME280;9396;51.510;11.934;2022-08-02T09:08:05;100758.44;;;26.84;58.98
18533;BME280;9396;51.510;11.934;2022-08-02T09:10:39;100756.44;;;26.63;60.54
18533;BME280;9396;51.510;11.934;2022-08-02T09:13:14;100773.22;;;26.05;60.91
18533;BME280;9396;51.510;11.934;2022-08-02T09:15:42;100764.22;;;26.21;61.87
18533;BME280;9396;51.510;11.934;2022-08-02T09:18:10;100756.84;;;26.05;61.72
18533;BME280;9396;51.510;11.934;2022-08-02T09:20:52;100753.47;;;26.31;63.28
18533;BME280;9396;51.510;11.934;2022-08-02T09:23:22;100764.81;;;26.73;62.17
18533;BME280;9396;51.510;11.934;2022-08-02T09:25:57;100766.38;;;26.85;61.10
18533;BME280;9396;51.510;11.934;2022-08-02T09:28:28;100752.06;;;26.78;59.61
18533;BME280;9396;51.510;11.934;2022-08-02T09:30:57;100745.78;;;26.78;60.98
18533;BME280;9396;51.510;11.934;2022-08-02T09:33:25;100746.38;;;27.01;62.90
18533;BME280;9396;51.510;11.934;2022-08-02T09:36:00;100747.59;;;27.10;61.85
18533;BME280;9396;51.510;11.934;2022-08-02T09:38:27;100738.94;;;27.18;63.53
18533;BME280;9396;51.510;11.934;2022-08-02T09:40:55;100733.94;;;27.10;61.70
18533;BME280;9396;51.510;11.934;2022-08-02T09:43:34;100738.50;;;27.05;62.45
18533;BME280;9396;51.510;11.934;2022-08-02T09:46:12;100708.94;;;26.64;60.29
18533;BME280;9396;51.510;11.934;2022-08-02T09:48:48;100745.69;;;26.56;61.93
18533;BME280;9396;51.510;11.934;2022-08-02T09:51:18;100756.19;;;26.64;61.75
18533;BME280;9396;51.510;11.934;2022-08-02T09:53:47;100747.50;;;26.67;60.90
18533;BME280;9396;51.510;11.934;2022-08-02T09:56:15;100745.78;;;26.78;62.32
18533;BME280;9396;51.510;11.934;2022-08-02T09:58:43;100751.06;;;26.84;63.47
18533;BME280;9396;51.510;11.934;2022-08-02T10:01:10;100747.50;;;26.84;63.79
18533;BME280;9396;51.510;11.934;2022-08-02T10:03:36;100745.03;;;26.82;63.04
18533;BME280;9396;51.510;11.934;2022-08-02T10:06:04;100734.59;;;26.79;65.31
18533;BME280;9396;51.510;11.934;2022-08-02T10:08:32;100737.59;;;26.78;63.20
18533;BME280;9396;51.510;11.934;2022-08-02T10:11:00;100714.44;;;26.47;60.86
18533;BME280;9396;51.510;11.934;2022-08-02T10:13:28;100735.94;;;26.10;61.79
18533;BME280;9396;51.510;11.934;2022-08-02T10:15:56;100729.66;;;26.26;62.31
18533;BME280;9396;51.510;11.934;2022-08-02T10:18:23;100723.72;;;26.13;63.00
18533;BME280;9396;51.510;11.934;2022-08-02T10:20:51;100725.06;;;26.27;63.03
18533;BME280;9396;51.510;11.934;2022-08-02T10:23:20;100727.34;;;26.35;63.39
18533;BME280;9396;51.510;11.934;2022-08-02T10:25:49;100712.47;;;26.42;63.19
18533;BME280;9396;51.510;11.934;2022-08-02T10:28:24;100709.81;;;26.48;64.93
18533;BME280;9396;51.510;11.934;2022-08-02T10:30:53;100708.09;;;26.41;64.80
18533;BME280;9396;51.510;11.934;2022-08-02T10:33:21;100708.50;;;26.33;63.18
18533;BME280;9396;51.510;11.934;2022-08-02T10:35:52;100703.03;;;26.17;62.55
18533;BME280;9396;51.510;11.934;2022-08-02T10:38:22;100699.59;;;26.21;61.81
18533;BME280;9396;51.510;11.934;2022-08-02T10:40:52;100695.50;;;26.24;62.54
18533;BME280;9396;51.510;11.934;2022-08-02T10:43:42;100692.97;;;26.34;61.73
18533;BME280;9396;51.510;11.934;2022-08-02T10:46:22;100689.97;;;26.19;60.84
18533;BME280;9396;51.510;11.934;2022-08-02T10:49:07;100628.97;;;25.92;63.38
18533;BME280;9396;51.510;11.934;2022-08-02T10:54:38;100691.34;;;25.72;62.41
18533;BME280;9396;51.510;11.934;2022-08-02T10:57:21;100694.06;;;25.88;63.05
18533;BME280;9396;51.510;11.934;2022-08-02T10:59:48;100687.03;;;26.04;61.43
18533;BME280;9396;51.510;11.934;2022-08-02T11:02:34;100684.03;;;26.05;64.22
18533;BME280;9396;51.510;11.934;2022-08-02T11:05:07;100682.97;;;26.06;65.99
18533;BME280;9396;51.510;11.934;2022-08-02T11:07:37;100679.22;;;25.96;61.52
18533;BME280;9396;51.510;11.934;2022-08-02T11:10:26;100671.44;;;25.88;63.02
18533;BME280;9396;51.510;11.934;2022-08-02T11:13:06;100671.25;;;26.06;63.13
18533;BME280;9396;51.510;11.934;2022-08-02T11:15:59;100670.66;;;26.04;61.50
18533;BME280;9396;51.510;11.934;2022-08-02T11:19:01;100674.31;;;26.09;62.22
18533;BME280;9396;51.510;11.934;2022-08-02T11:21:29;100671.63;;;25.98;61.54
18533;BME280;9396;51.510;11.934;2022-08-02T11:24:25;100670.78;;;25.97;62.46
18533;BME280;9396;51.510;11.934;2022-08-02T11:26:54;100666.06;;;25.93;61.34
18533;BME280;9396;51.510;11.934;2022-08-02T11:29:21;100662.25;;;25.94;61.42
18533;BME280;9396;51.510;11.934;2022-08-02T11:31:48;100663.28;;;26.04;62.14
18533;BME280;9396;51.510;11.934;2022-08-02T11:34:16;100669.97;;;26.13;64.00
18533;BME280;9396;51.510;11.934;2022-08-02T11:36:44;100665.69;;;26.17;61.66
18533;BME280;9396;51.510;11.934;2022-08-02T11:39:13;100667.75;;;26.27;63.23
18533;BME280;9396;51.510;11.934;2022-08-02T11:41:41;100660.63;;;26.26;64.34
18533;BME280;9396;51.510;11.934;2022-08-02T11:44:08;100661.53;;;26.31;61.10
18533;BME280;9396;51.510;11.934;2022-08-02T11:46:35;100660.03;;;26.40;61.95
18533;BME280;9396;51.510;11.934;2022-08-02T11:49:13;100658.47;;;26.44;63.27
18533;BME280;9396;51.510;11.934;2022-08-02T11:51:53;100649.19;;;26.45;62.28
18533;BME280;9396;51.510;11.934;2022-08-02T11:54:23;100653.53;;;26.41;62.88
18533;BME280;9396;51.510;11.934;2022-08-02T11:56:51;100649.88;;;26.36;63.50
18533;BME280;9396;51.510;11.934;2022-08-02T11:59:18;100648.47;;;26.33;62.61
18533;BME280;9396;51.510;11.934;2022-08-02T12:01:44;100644.84;;;26.28;60.01
18533;BME280;9396;51.510;11.934;2022-08-02T12:04:15;100639.72;;;26.31;62.03
18533;BME280;9396;51.510;11.934;2022-08-02T12:06:43;100640.03;;;26.35;64.33
18533;BME280;9396;51.510;11.934;2022-08-02T12:09:18;100637.38;;;26.40;62.89
18533;BME280;9396;51.510;11.934;2022-08-02T12:11:47;100632.81;;;26.45;61.99
18533;BME280;9396;51.510;11.934;2022-08-02T12:14:15;100631.50;;;26.48;59.42
18533;BME280;9396;51.510;11.934;2022-08-02T12:16:42;100625.09;;;26.59;60.99
18533;BME280;9396;51.510;11.934;2022-08-02T12:19:26;100627.41;;;26.51;60.02
18533;BME280;9396;51.510;11.934;2022-08-02T12:22:10;100552.53;;;26.20;59.60
18533;BME280;9396;51.510;11.934;2022-08-02T12:24:39;100621.84;;;26.62;61.24
18533;BME280;9396;51.510;11.934;2022-08-02T12:27:06;100619.78;;;26.69;60.26
18533;BME280;9396;51.510;11.934;2022-08-02T12:29:36;100614.97;;;26.76;59.87
18533;BME280;9396;51.510;11.934;2022-08-02T12:32:04;100607.34;;;26.78;57.99
18533;BME280;9396;51.510;11.934;2022-08-02T12:34:33;100610.13;;;26.83;59.73
18533;BME280;9396;51.510;11.934;2022-08-02T12:37:03;100609.94;;;26.90;59.58
18533;BME280;9396;51.510;11.934;2022-08-02T12:39:35;100600.63;;;26.86;59.01
18533;BME280;9396;51.510;11.934;2022-08-02T12:42:03;100606.13;;;26.91;59.17
18533;BME280;9396;51.510;11.934;2022-08-02T12:44:30;100608.75;;;26.81;62.76
18533;BME280;9396;51.510;11.934;2022-08-02T12:47:04;100606.34;;;26.84;58.72
18533;BME280;9396;51.510;11.934;2022-08-02T12:49:31;100600.38;;;26.87;59.46
18533;BME280;9396;51.510;11.934;2022-08-02T12:51:58;100608.56;;;26.87;60.74
18533;BME280;9396;51.510;11.934;2022-08-02T12:54:26;100603.66;;;26.89;59.60
18533;BME280;9396;51.510;11.934;2022-08-02T12:56:53;100600.38;;;26.87;58.53
18533;BME280;9396;51.510;11.934;2022-08-02T12:59:34;100601.19;;;26.88;61.31
18533;BME280;9396;51.510;11.934;2022-08-02T13:02:03;100603.16;;;26.92;58.86
18533;BME280;9396;51.510;11.934;2022-08-02T13:04:30;100604.78;;;26.93;60.33